createdAt,value
2022-08-17T00:00:43.726Z,35.31
2022-08-17T00:03:28.195Z,35.13
2022-08-17T00:06:00.761Z,34.97
2022-08-17T00:08:33.320Z,34.88
2022-08-17T00:11:02.756Z,34.78
2022-08-17T00:13:35.832Z,34.68
2022-08-17T00:16:10.956Z,34.65
2022-08-17T00:19:08.003Z,34.61
2022-08-17T00:22:29.497Z,34.62
2022-08-17T00:24:17.956Z,34.60
2022-08-17T00:26:46.335Z,34.58
2022-08-17T00:29:19.401Z,34.52
2022-08-17T00:31:49.245Z,34.42
2022-08-17T00:34:17.795Z,34.26
2022-08-17T00:36:46.200Z,34.11
2022-08-17T00:39:14.435Z,33.99
2022-08-17T00:41:45.763Z,33.89
2022-08-17T00:44:14.282Z,33.77
2022-08-17T00:46:44.687Z,33.62
2022-08-17T00:49:14.180Z,33.50
2022-08-17T00:51:57.270Z,33.42
2022-08-17T00:54:41.993Z,33.29
2022-08-17T00:57:17.326Z,33.25
2022-08-17T01:00:03.756Z,33.18
2022-08-17T01:02:41.458Z,33.07
2022-08-17T01:05:16.016Z,32.99
2022-08-17T01:07:49.089Z,32.90
2022-08-17T01:10:58.301Z,32.78
2022-08-17T01:13:10.121Z,32.64
2022-08-17T01:15:42.407Z,32.50
2022-08-17T01:18:15.946Z,32.34
2022-08-17T01:20:50.592Z,32.26
2022-08-17T01:23:22.030Z,32.19
2022-08-17T01:25:56.275Z,32.15
2022-08-17T01:28:52.490Z,32.13
2022-08-17T01:31:14.690Z,32.06
2022-08-17T01:33:43.070Z,32.02
2022-08-17T01:36:11.662Z,32.01
2022-08-17T01:38:41.234Z,31.98
2022-08-17T01:41:17.475Z,31.95
2022-08-17T01:44:02.834Z,31.88
2022-08-17T01:46:34.894Z,31.79
2022-08-17T01:49:06.424Z,31.68
2022-08-17T01:51:35.409Z,31.59
2022-08-17T01:54:07.478Z,31.50
2022-08-17T01:56:39.715Z,31.41
2022-08-17T01:59:07.967Z,31.28
2022-08-17T02:01:37.924Z,31.18
2022-08-17T02:04:08.931Z,31.10
2022-08-17T02:06:45.268Z,30.97
2022-08-17T02:09:23.321Z,30.82
2022-08-17T02:11:56.325Z,30.73
2022-08-17T02:14:25.994Z,30.60
2022-08-17T02:16:55.035Z,30.44
2022-08-17T02:19:23.897Z,30.28
2022-08-17T02:21:54.549Z,30.11
2022-08-17T02:24:59.536Z,29.96
2022-08-17T02:27:17.965Z,29.85
2022-08-17T02:29:46.255Z,29.76
2022-08-17T02:32:27.437Z,29.68
2022-08-17T02:35:00.050Z,29.58
2022-08-17T02:37:30.567Z,29.45
2022-08-17T02:40:00.343Z,29.33
2022-08-17T02:42:35.507Z,29.25
2022-08-17T02:45:06.190Z,29.21
2022-08-17T02:47:35.532Z,29.12
2022-08-17T02:50:04.181Z,29.05
2022-08-17T02:52:43.079Z,28.98
2022-08-17T02:55:19.590Z,28.95
2022-08-17T02:57:48.780Z,28.92
2022-08-17T03:00:23.277Z,28.87
2022-08-17T03:02:52.432Z,28.84
2022-08-17T03:05:23.360Z,28.77
2022-08-17T03:07:52.532Z,28.69
2022-08-17T03:10:22.415Z,28.60
2022-08-17T03:12:53.700Z,28.52
2022-08-17T03:15:26.931Z,28.46
2022-08-17T03:17:57.530Z,28.41
2022-08-17T03:20:27.125Z,28.37
2022-08-17T03:23:01.874Z,28.33
2022-08-17T03:25:35.155Z,28.24
2022-08-17T03:28:03.635Z,28.15
2022-08-17T03:30:31.986Z,28.07
2022-08-17T03:33:03.030Z,28.02
2022-08-17T03:35:33.927Z,27.95
2022-08-17T03:38:02.655Z,27.89
2022-08-17T03:40:34.519Z,27.84
2022-08-17T03:43:22.428Z,27.76
2022-08-17T03:46:27.220Z,27.71
2022-08-17T03:49:16.266Z,27.60
2022-08-17T03:52:02.834Z,27.43
2022-08-17T03:54:49.636Z,27.30
2022-08-17T03:57:17.951Z,27.27
2022-08-17T03:59:46.925Z,27.22
2022-08-17T04:02:25.391Z,27.20
2022-08-17T04:04:54.830Z,27.16
2022-08-17T04:07:26.436Z,27.14
2022-08-17T04:09:54.868Z,27.12
2022-08-17T04:12:25.026Z,27.10
2022-08-17T04:14:55.060Z,27.09
2022-08-17T04:17:28.212Z,27.07
2022-08-17T04:19:57.261Z,27.00
2022-08-17T04:22:32.537Z,26.94
2022-08-17T04:25:16.847Z,26.90
2022-08-17T04:27:45.326Z,26.87
2022-08-17T04:30:14.267Z,26.86
2022-08-17T04:33:10.467Z,26.81
2022-08-17T04:35:45.479Z,26.73
2022-08-17T04:38:19.553Z,26.61
2022-08-17T04:41:06.771Z,26.49
2022-08-17T04:43:36.639Z,26.45
2022-08-17T04:46:09.176Z,26.42
2022-08-17T04:48:46.769Z,26.40
2022-08-17T04:51:29.003Z,26.35
2022-08-17T04:54:02.227Z,26.27
2022-08-17T04:56:32.480Z,26.20
2022-08-17T04:59:07.411Z,26.18
2022-08-17T05:01:39.751Z,26.16
2022-08-17T05:04:32.155Z,26.16
2022-08-17T05:06:59.929Z,26.11
2022-08-17T05:09:29.174Z,26.09
2022-08-17T05:12:01.340Z,26.01
2022-08-17T05:14:32.429Z,25.95
2022-08-17T05:17:07.359Z,25.89
2022-08-17T05:19:39.963Z,25.81
2022-08-17T05:22:08.620Z,25.72
2022-08-17T05:24:42.644Z,25.67
2022-08-17T05:27:19.324Z,25.59
2022-08-17T05:29:47.724Z,25.53
2022-08-17T05:32:38.581Z,25.49
2022-08-17T05:35:06.303Z,25.47
2022-08-17T05:37:34.702Z,25.42
2022-08-17T05:40:03.181Z,25.37
2022-08-17T05:42:31.685Z,25.31
2022-08-17T05:45:00.141Z,25.25
2022-08-17T05:47:29.586Z,25.21
2022-08-17T05:49:58.610Z,25.15
2022-08-17T05:52:45.081Z,25.11
2022-08-17T05:55:28.356Z,25.10
2022-08-17T05:58:05.885Z,25.06
2022-08-17T06:01:12.514Z,25.04
2022-08-17T06:04:12.102Z,25.01
2022-08-17T06:07:29.141Z,24.97
2022-08-17T06:10:14.276Z,24.97
2022-08-17T06:13:13.766Z,24.98
2022-08-17T06:16:33.269Z,24.98
2022-08-17T06:19:49.801Z,24.95
2022-08-17T06:22:21.161Z,24.92
2022-08-17T06:24:57.637Z,24.85
2022-08-17T06:27:45.903Z,24.84
2022-08-17T06:30:19.085Z,24.78
2022-08-17T06:32:50.667Z,24.75
2022-08-17T06:35:32.014Z,24.71
2022-08-17T06:38:38.358Z,24.65
2022-08-17T06:41:52.904Z,24.57
2022-08-17T06:44:44.749Z,24.48
2022-08-17T06:47:37.231Z,24.42
2022-08-17T06:50:16.431Z,24.38
2022-08-17T06:53:09.796Z,24.30
2022-08-17T06:56:09.786Z,24.25
2022-08-17T06:58:40.427Z,24.22
2022-08-17T07:01:17.110Z,24.17
2022-08-17T07:04:05.155Z,24.16
2022-08-17T07:06:54.436Z,24.11
2022-08-17T07:09:30.598Z,24.01
2022-08-17T07:12:12.901Z,23.93
2022-08-17T07:15:10.997Z,23.90
2022-08-17T07:17:47.741Z,23.86
2022-08-17T07:20:21.476Z,23.81
2022-08-17T07:23:22.775Z,23.77
2022-08-17T07:25:51.561Z,23.73
2022-08-17T07:28:26.756Z,23.72
2022-08-17T07:30:56.111Z,23.68
2022-08-17T07:33:29.389Z,23.62
2022-08-17T07:35:59.176Z,23.60
2022-08-17T07:38:32.876Z,23.55
2022-08-17T07:41:07.156Z,23.52
2022-08-17T07:43:40.928Z,23.46
2022-08-17T07:46:38.595Z,23.45
2022-08-17T07:49:13.797Z,23.42
2022-08-17T07:51:42.021Z,23.43
2022-08-17T07:54:24.204Z,23.43
2022-08-17T07:56:57.598Z,23.41
2022-08-17T07:59:35.719Z,23.39
2022-08-17T08:02:31.686Z,23.35
2022-08-17T08:05:48.803Z,23.31
2022-08-17T08:08:27.676Z,23.31
2022-08-17T08:11:03.716Z,23.28
2022-08-17T08:13:33.476Z,23.22
2022-08-17T08:16:25.476Z,23.19
2022-08-17T08:19:00.110Z,23.14
2022-08-17T08:21:36.997Z,23.05
2022-08-17T08:24:41.162Z,22.98
2022-08-17T08:27:27.937Z,22.93
2022-08-17T08:30:13.482Z,22.90
2022-08-17T08:33:18.027Z,22.87
2022-08-17T08:36:56.859Z,22.83
2022-08-17T08:40:03.140Z,22.77
2022-08-17T08:42:46.756Z,22.73
2022-08-17T08:45:22.886Z,22.71
2022-08-17T08:48:23.020Z,22.65
2022-08-17T08:51:12.047Z,22.64
2022-08-17T08:54:07.876Z,22.63
2022-08-17T08:57:19.510Z,22.60
2022-08-17T08:59:51.163Z,22.57
2022-08-17T09:02:26.887Z,22.54
2022-08-17T09:05:30.308Z,22.49
2022-08-17T09:08:01.157Z,22.43
2022-08-17T09:10:54.439Z,22.37
2022-08-17T09:13:44.036Z,22.30
2022-08-17T09:16:34.111Z,22.23
2022-08-17T09:19:11.671Z,22.20
2022-08-17T09:22:23.876Z,22.19
2022-08-17T09:25:17.156Z,22.17
2022-08-17T09:28:05.796Z,22.12
2022-08-17T09:30:47.076Z,22.05
2022-08-17T09:33:20.218Z,21.97
2022-08-17T09:35:55.082Z,21.92
2022-08-17T09:39:00.430Z,21.92
2022-08-17T09:41:34.594Z,21.88
2022-08-17T09:44:23.933Z,21.85
2022-08-17T09:47:06.276Z,21.81
2022-08-17T09:49:46.436Z,21.77
2022-08-17T09:52:25.764Z,21.73
2022-08-17T09:54:56.995Z,21.69
2022-08-17T09:57:43.607Z,21.66
2022-08-17T10:00:17.963Z,21.66
2022-08-17T10:03:04.191Z,21.66
2022-08-17T10:05:58.996Z,21.64
2022-08-17T10:08:42.760Z,21.59
2022-08-17T10:11:55.396Z,21.56
2022-08-17T10:14:36.472Z,21.55
2022-08-17T10:17:17.865Z,21.53
2022-08-17T10:20:12.196Z,21.52
2022-08-17T10:23:27.876Z,21.53
2022-08-17T10:26:16.992Z,21.52
2022-08-17T10:28:56.906Z,21.55
2022-08-17T10:31:41.962Z,21.58
2022-08-17T10:34:48.996Z,21.59
2022-08-17T10:37:41.386Z,21.62
2022-08-17T10:40:28.893Z,21.66
2022-08-17T10:43:20.432Z,21.69
2022-08-17T10:46:10.610Z,21.70
2022-08-17T10:48:45.155Z,21.70
2022-08-17T10:51:38.830Z,21.69
2022-08-17T10:54:28.196Z,21.70
2022-08-17T10:56:57.950Z,21.68
2022-08-17T10:59:39.560Z,21.68
2022-08-17T11:02:30.275Z,21.66
2022-08-17T11:05:20.127Z,21.67
2022-08-17T11:08:01.955Z,21.65
2022-08-17T11:10:39.881Z,21.65
2022-08-17T11:13:28.517Z,21.64
2022-08-17T11:16:28.657Z,21.67
2022-08-17T11:19:17.636Z,21.63
2022-08-17T11:22:08.836Z,21.66
2022-08-17T11:24:49.315Z,21.67
2022-08-17T11:27:28.674Z,21.67
2022-08-17T11:30:03.321Z,21.69
2022-08-17T11:32:47.627Z,21.69
2022-08-17T11:35:23.075Z,21.69
2022-08-17T11:38:25.955Z,21.70
2022-08-17T11:40:59.391Z,21.71
2022-08-17T11:43:50.190Z,21.68
2022-08-17T11:47:18.509Z,21.60
2022-08-17T11:50:13.449Z,21.61
2022-08-17T11:52:49.385Z,21.63
2022-08-17T11:55:44.725Z,21.67
2022-08-17T11:58:31.556Z,21.67
2022-08-17T12:01:01.795Z,21.66
2022-08-17T12:03:32.924Z,21.70
2022-08-17T12:06:12.035Z,21.73
2022-08-17T12:08:44.681Z,21.76
2022-08-17T12:11:55.159Z,21.76
2022-08-17T12:14:18.480Z,21.79
2022-08-17T12:17:13.000Z,21.82
2022-08-17T12:19:51.075Z,21.89
2022-08-17T12:22:26.185Z,21.93
2022-08-17T12:25:14.765Z,21.94
2022-08-17T12:28:06.688Z,21.95
2022-08-17T12:30:37.443Z,21.97
2022-08-17T12:33:11.884Z,22.01
2022-08-17T12:35:40.030Z,22.04
2022-08-17T12:38:32.822Z,22.01
2022-08-17T12:41:21.314Z,21.99
2022-08-17T12:44:18.664Z,21.98
2022-08-17T12:46:53.635Z,22.00
2022-08-17T12:49:25.483Z,21.99
2022-08-17T12:52:13.954Z,22.02
2022-08-17T12:55:07.888Z,22.04
2022-08-17T12:57:47.456Z,22.05
2022-08-17T13:00:32.839Z,22.07
2022-08-17T13:03:02.914Z,22.07
2022-08-17T13:05:40.345Z,22.10
2022-08-17T13:08:17.707Z,22.11
2022-08-17T13:10:56.793Z,22.10
2022-08-17T13:13:28.924Z,22.08
2022-08-17T13:16:01.794Z,22.07
2022-08-17T13:18:47.880Z,22.04
2022-08-17T13:21:27.716Z,21.98
2022-08-17T13:24:03.633Z,21.94
2022-08-17T13:26:37.224Z,21.91
2022-08-17T13:29:09.549Z,21.88
2022-08-17T13:31:51.829Z,21.90
2022-08-17T13:34:29.778Z,21.88
2022-08-17T13:37:29.715Z,21.88
2022-08-17T13:40:20.835Z,21.82
2022-08-17T13:42:53.992Z,21.80
2022-08-17T13:45:36.753Z,21.79
2022-08-17T13:48:11.139Z,21.77
2022-08-17T13:51:04.995Z,21.73
2022-08-17T13:53:37.794Z,21.71
2022-08-17T13:56:33.521Z,21.71
2022-08-17T13:59:07.665Z,21.70
2022-08-17T14:01:53.398Z,21.65
2022-08-17T14:04:33.797Z,21.57
2022-08-17T14:07:28.266Z,21.53
2022-08-17T14:10:19.159Z,21.53
2022-08-17T14:12:47.714Z,21.53
2022-08-17T14:15:19.070Z,21.54
2022-08-17T14:17:49.930Z,21.56
2022-08-17T14:20:21.921Z,21.57
2022-08-17T14:22:56.676Z,21.57
2022-08-17T14:25:29.325Z,21.58
2022-08-17T14:27:58.128Z,21.62
2022-08-17T14:30:29.934Z,21.66
2022-08-17T14:33:00.515Z,21.69
2022-08-17T14:35:30.111Z,21.71
2022-08-17T14:37:58.720Z,21.75
2022-08-17T14:40:27.077Z,21.79
2022-08-17T14:42:57.635Z,21.85
2022-08-17T14:45:29.572Z,21.90
2022-08-17T14:48:04.995Z,21.96
2022-08-17T14:50:35.803Z,22.01
2022-08-17T14:53:06.677Z,22.03
2022-08-17T14:55:36.680Z,22.10
2022-08-17T14:58:04.959Z,22.16
2022-08-17T15:00:34.210Z,22.24
2022-08-17T15:03:03.715Z,22.27
2022-08-17T15:05:35.754Z,22.30
2022-08-17T15:08:05.449Z,22.42
2022-08-17T15:10:35.057Z,22.56
2022-08-17T15:13:03.525Z,22.67
2022-08-17T15:15:32.417Z,22.77
2022-08-17T15:18:00.764Z,22.86
2022-08-17T15:20:30.834Z,22.88
2022-08-17T15:22:59.795Z,22.89
2022-08-17T15:25:31.246Z,22.86
2022-08-17T15:27:59.942Z,22.85
2022-08-17T15:30:28.614Z,22.89
2022-08-17T15:32:59.476Z,22.95
2022-08-17T15:35:32.950Z,22.99
2022-08-17T15:38:11.597Z,22.98
2022-08-17T15:40:45.079Z,23.04
2022-08-17T15:43:27.833Z,23.05
2022-08-17T15:46:11.391Z,23.20
2022-08-17T15:48:42.758Z,23.31
2022-08-17T15:51:13.760Z,23.34
2022-08-17T15:53:44.121Z,23.40
2022-08-17T15:56:14.510Z,23.54
2022-08-17T15:58:44.841Z,23.57
2022-08-17T16:01:18.450Z,23.57
2022-08-17T16:04:04.611Z,23.55
2022-08-17T16:06:36.033Z,23.57
2022-08-17T16:09:04.676Z,23.59
2022-08-17T16:11:32.880Z,23.56
2022-08-17T16:14:01.237Z,23.49
2022-08-17T16:16:32.271Z,23.45
2022-08-17T16:19:00.682Z,23.38
2022-08-17T16:21:42.647Z,23.39
2022-08-17T16:24:13.287Z,23.35
2022-08-17T16:26:42.122Z,23.29
2022-08-17T16:29:11.232Z,23.28
2022-08-17T16:31:40.296Z,23.27
2022-08-17T16:34:17.006Z,23.34
2022-08-17T16:36:54.658Z,23.42
2022-08-17T16:39:25.948Z,23.55
2022-08-17T16:41:54.928Z,23.65
2022-08-17T16:44:23.331Z,23.82
2022-08-17T16:46:51.582Z,24.06
2022-08-17T16:49:36.088Z,24.39
2022-08-17T16:52:11.014Z,24.62
2022-08-17T16:54:44.450Z,24.68
2022-08-17T16:57:14.302Z,24.83
2022-08-17T16:59:47.492Z,24.91
2022-08-17T17:02:17.971Z,24.98
2022-08-17T17:05:04.042Z,25.06
2022-08-17T17:07:35.272Z,25.17
2022-08-17T17:10:11.247Z,25.29
2022-08-17T17:13:01.629Z,25.35
2022-08-17T17:15:55.226Z,25.41
2022-08-17T17:18:33.476Z,25.57
2022-08-17T17:21:02.332Z,25.71
2022-08-17T17:23:47.465Z,25.72
2022-08-17T17:27:01.475Z,25.76
2022-08-17T17:30:03.533Z,25.82
2022-08-17T17:33:00.924Z,26.01
2022-08-17T17:35:57.963Z,26.08
2022-08-17T17:38:30.231Z,26.13
2022-08-17T17:41:05.391Z,26.33
2022-08-17T17:43:41.361Z,26.59
2022-08-17T17:46:29.253Z,26.66
2022-08-17T17:48:59.125Z,26.70
2022-08-17T17:52:07.158Z,26.63
2022-08-17T17:55:13.885Z,26.47
2022-08-17T17:57:56.601Z,26.48
2022-08-17T18:00:26.185Z,26.51
2022-08-17T18:03:12.327Z,26.46
2022-08-17T18:06:01.481Z,26.39
2022-08-17T18:08:35.066Z,26.34
2022-08-17T18:11:26.025Z,26.32
2022-08-17T18:14:05.992Z,26.38
2022-08-17T18:16:35.932Z,26.43
2022-08-17T18:19:04.353Z,26.49
2022-08-17T18:21:44.801Z,26.68
2022-08-17T18:24:14.126Z,26.79
2022-08-17T18:26:56.500Z,27.03
2022-08-17T18:29:25.165Z,27.09
2022-08-17T18:32:24.433Z,27.06
2022-08-17T18:35:02.902Z,27.02
2022-08-17T18:37:52.990Z,27.02
2022-08-17T18:40:21.243Z,27.03
2022-08-17T18:43:06.238Z,27.10
2022-08-17T18:45:41.967Z,27.37
2022-08-17T18:48:36.909Z,27.54
2022-08-17T18:51:40.452Z,27.61
2022-08-17T18:54:22.766Z,27.84
2022-08-17T18:56:57.824Z,28.10
2022-08-17T18:59:32.280Z,28.28
2022-08-17T19:02:22.381Z,28.36
2022-08-17T19:05:08.768Z,28.48
2022-08-17T19:07:43.558Z,28.51
2022-08-17T19:10:46.084Z,28.56
2022-08-17T19:13:24.321Z,28.53
2022-08-17T19:16:05.316Z,28.53
2022-08-17T19:18:51.796Z,28.46
2022-08-17T19:21:26.450Z,28.42
2022-08-17T19:24:06.270Z,28.38
2022-08-17T19:26:54.503Z,28.32
2022-08-17T19:29:52.096Z,28.17
2022-08-17T19:32:25.806Z,28.08
2022-08-17T19:34:54.667Z,28.07
2022-08-17T19:37:37.334Z,28.11
2022-08-17T19:41:00.930Z,28.14
2022-08-17T19:43:39.722Z,28.27
2022-08-17T19:46:28.662Z,28.49
2022-08-17T19:49:04.285Z,28.76
2022-08-17T19:51:59.851Z,29.01
2022-08-17T19:54:38.995Z,29.16
2022-08-17T19:57:25.876Z,29.23
2022-08-17T20:00:00.755Z,29.17
2022-08-17T20:03:05.840Z,29.15
2022-08-17T20:06:12.990Z,29.09
2022-08-17T20:09:14.841Z,28.96
2022-08-17T20:12:15.677Z,28.84
2022-08-17T20:14:55.461Z,28.83
2022-08-17T20:17:33.644Z,28.92
2022-08-17T20:20:31.785Z,29.21
2022-08-17T20:23:02.916Z,29.52
2022-08-17T20:26:06.355Z,29.51
2022-08-17T20:28:36.685Z,29.34
2022-08-17T20:31:59.915Z,29.23
2022-08-17T20:34:34.944Z,29.11
2022-08-17T20:37:11.236Z,29.05
2022-08-17T20:39:44.387Z,29.01
2022-08-17T20:42:21.717Z,29.00
2022-08-17T20:44:53.557Z,29.07
2022-08-17T20:47:33.555Z,29.06
2022-08-17T20:50:33.645Z,29.06
2022-08-17T20:53:14.951Z,29.22
2022-08-17T20:55:52.549Z,29.29
2022-08-17T20:58:24.108Z,29.40
2022-08-17T21:00:59.666Z,29.55
2022-08-17T21:03:50.460Z,29.34
2022-08-17T21:06:25.120Z,29.14
2022-08-17T21:09:11.557Z,29.19
2022-08-17T21:11:56.728Z,29.23
2022-08-17T21:14:58.847Z,29.15
2022-08-17T21:17:57.157Z,28.92
2022-08-17T21:20:47.948Z,28.94
2022-08-17T21:23:28.197Z,28.92
2022-08-17T21:26:13.551Z,28.83
2022-08-17T21:29:01.039Z,28.72
2022-08-17T21:31:44.081Z,28.73
2022-08-17T21:34:17.236Z,28.82
2022-08-17T21:36:49.795Z,29.01
2022-08-17T21:39:33.258Z,29.24
2022-08-17T21:42:02.596Z,29.42
2022-08-17T21:44:43.045Z,29.36
2022-08-17T21:47:26.534Z,29.27
2022-08-17T21:49:56.930Z,29.13
2022-08-17T21:52:28.040Z,29.01
2022-08-17T21:55:01.318Z,28.98
2022-08-17T21:57:31.327Z,28.83
2022-08-17T22:00:03.081Z,28.73
2022-08-17T22:02:40.782Z,28.71
2022-08-17T22:05:14.667Z,28.75
2022-08-17T22:07:51.531Z,28.69
2022-08-17T22:10:34.992Z,28.62
2022-08-17T22:13:29.281Z,28.57
2022-08-17T22:16:29.487Z,28.84
2022-08-17T22:19:03.167Z,29.05
2022-08-17T22:21:31.741Z,29.02
2022-08-17T22:24:07.562Z,29.04
2022-08-17T22:27:14.678Z,29.06
2022-08-17T22:29:57.358Z,29.13
2022-08-17T22:32:39.676Z,29.49
2022-08-17T22:35:30.101Z,29.91
2022-08-17T22:38:18.608Z,30.10
2022-08-17T22:40:53.071Z,29.97
2022-08-17T22:43:26.675Z,29.79
2022-08-17T22:45:58.882Z,29.58
2022-08-17T22:48:29.996Z,29.38
2022-08-17T22:51:27.161Z,29.28
2022-08-17T22:54:35.398Z,29.21
2022-08-17T22:57:23.952Z,29.25
2022-08-17T22:59:55.900Z,29.24
2022-08-17T23:02:26.338Z,29.20
2022-08-17T23:05:17.645Z,29.19
2022-08-17T23:07:47.591Z,29.08
2022-08-17T23:10:16.517Z,29.06
2022-08-17T23:12:44.843Z,29.32
2022-08-17T23:15:18.108Z,29.51
2022-08-17T23:17:46.801Z,29.74
2022-08-17T23:20:19.153Z,29.71
2022-08-17T23:22:52.050Z,29.68
2022-08-17T23:25:32.987Z,29.64
2022-08-17T23:28:04.608Z,29.52
2022-08-17T23:30:36.654Z,29.39
2022-08-17T23:33:19.523Z,29.32
2022-08-17T23:35:47.863Z,29.19
2022-08-17T23:38:16.362Z,29.05
2022-08-17T23:40:45.160Z,28.94
2022-08-17T23:43:25.337Z,28.89
2022-08-17T23:45:59.581Z,28.84
2022-08-17T23:48:36.866Z,28.89
2022-08-17T23:51:23.404Z,28.92
2022-08-17T23:53:59.446Z,28.95
2022-08-17T23:56:29.518Z,28.94
2022-08-17T23:58:58.923Z,28.87
